Time;durP1;ratioP1;P1;durP2;ratioP2;P2;SDS_P1;SDS_P2;PMS_P1;PMS_P2;Temp;Humidity;BMP_temperature;BMP_pressure;BME280_temperature;BME280_humidity;BME280_pressure;Samples;Min_cycle;Max_cycle;Signal;HPM_P1;HPM_P2
2022/10/15 00:01:54;;;;;;;0.00;0.00;;;;;;;;;;5066093;28;20252;-67
2022/10/15 00:04:22;;;;;;;0.00;0.00;;;;;;;;;;5066548;28;20628;-68
2022/10/15 00:06:49;;;;;;;0.00;0.00;;;;;;;;;;5065991;28;20220;-68
2022/10/15 00:09:17;;;;;;;0.00;0.00;;;;;;;;;;5070340;28;20244;-68
2022/10/15 00:11:46;;;;;;;0.00;0.00;;;;;;;;;;5066923;28;20202;-68
2022/10/15 00:14:13;;;;;;;0.00;0.00;;;;;;;;;;5062899;28;20195;-69
2022/10/15 00:16:41;;;;;;;0.00;0.00;;;;;;;;;;5078924;28;20206;-67
2022/10/15 00:19:09;;;;;;;0.00;0.00;;;;;;;;;;5063378;28;20210;-67
2022/10/15 00:21:37;;;;;;;0.00;0.00;;;;;;;;;;5064160;28;20194;-67
2022/10/15 00:24:05;;;;;;;0.00;0.00;;;;;;;;;;5064704;28;20226;-68
2022/10/15 00:26:32;;;;;;;0.00;0.00;;;;;;;;;;5065861;28;20284;-68
2022/10/15 00:29:02;;;;;;;0.00;0.00;;;;;;;;;;5064205;28;20222;-68
2022/10/15 00:31:30;;;;;;;0.00;0.00;;;;;;;;;;5068766;28;20340;-68
2022/10/15 00:33:58;;;;;;;0.00;0.00;;;;;;;;;;5070703;28;20195;-66
2022/10/15 00:36:26;;;;;;;0.00;0.00;;;;;;;;;;5069377;28;20186;-68
2022/10/15 00:38:54;;;;;;;0.00;0.00;;;;;;;;;;5067420;28;20313;-68
2022/10/15 00:41:22;;;;;;;0.00;0.00;;;;;;;;;;5065573;28;20305;-68
2022/10/15 00:43:51;;;;;;;0.00;0.00;;;;;;;;;;5072096;28;20202;-66
2022/10/15 00:46:23;;;;;;;0.00;0.00;;;;;;;;;;5070703;28;20227;-68
2022/10/15 00:48:52;;;;;;;0.00;0.00;;;;;;;;;;5066602;28;20225;-67
2022/10/15 00:51:20;;;;;;;0.00;0.00;;;;;;;;;;5100185;27;20201;-68
2022/10/15 00:53:49;;;;;;;0.00;0.00;;;;;;;;;;5072763;28;20199;-68
2022/10/15 00:56:20;;;;;;;0.00;0.00;;;;;;;;;;5065633;28;20201;-67
2022/10/15 00:58:48;;;;;;;0.00;0.00;;;;;;;;;;5053982;28;20233;-68
2022/10/15 01:01:15;;;;;;;0.00;0.00;;;;;;;;;;5069216;28;20205;-68
2022/10/15 01:03:45;;;;;;;0.00;0.00;;;;;;;;;;5068571;28;20210;-68
2022/10/15 01:06:12;;;;;;;0.00;0.00;;;;;;;;;;5069053;28;20741;-67
2022/10/15 01:08:41;;;;;;;0.00;0.00;;;;;;;;;;5068618;28;20222;-67
2022/10/15 01:11:16;;;;;;;0.00;0.00;;;;;;;;;;5070227;28;20209;-68
2022/10/15 01:13:46;;;;;;;0.00;0.00;;;;;;;;;;5067579;28;20213;-68
2022/10/15 01:16:17;;;;;;;0.00;0.00;;;;;;;;;;5067482;28;20593;-67
2022/10/15 01:18:48;;;;;;;0.00;0.00;;;;;;;;;;5069006;28;20218;-68
2022/10/15 01:21:18;;;;;;;0.00;0.00;;;;;;;;;;5072906;28;20194;-66
2022/10/15 01:24:14;;;;;;;0.00;0.00;;;;;;;;;;5102984;27;20202;-68
2022/10/15 01:27:00;;;;;;;0.00;0.00;;;;;;;;;;5066849;28;20210;-68
2022/10/15 01:29:44;;;;;;;0.00;0.00;;;;;;;;;;5070261;28;20203;-67
2022/10/15 01:32:16;;;;;;;0.00;0.00;;;;;;;;;;5065429;28;20194;-68
2022/10/15 01:34:48;;;;;;;0.00;0.00;;;;;;;;;;5064531;28;20198;-68
2022/10/15 01:37:19;;;;;;;0.00;0.00;;;;;;;;;;5071449;28;20264;-68
2022/10/15 01:39:50;;;;;;;0.00;0.00;;;;;;;;;;5073593;28;20210;-67
2022/10/15 01:42:19;;;;;;;0.00;0.00;;;;;;;;;;5066596;28;20209;-68
2022/10/15 01:44:50;;;;;;;0.00;0.00;;;;;;;;;;5101236;27;20312;-68
2022/10/15 01:47:35;;;;;;;0.00;0.00;;;;;;;;;;5071074;28;20308;-68
2022/10/15 01:50:03;;;;;;;0.00;0.00;;;;;;;;;;5072185;28;20201;-67
2022/10/15 01:52:33;;;;;;;0.00;0.00;;;;;;;;;;5067902;28;20206;-67
2022/10/15 01:55:01;;;;;;;0.00;0.00;;;;;;;;;;5066110;28;20202;-68
2022/10/15 01:57:31;;;;;;;0.00;0.00;;;;;;;;;;5069784;28;20301;-67
2022/10/15 01:59:59;;;;;;;0.00;0.00;;;;;;;;;;5067133;28;20198;-67
2022/10/15 02:02:26;;;;;;;0.00;0.00;;;;;;;;;;5067647;28;20198;-67
2022/10/15 02:04:55;;;;;;;0.00;0.00;;;;;;;;;;5102054;27;20230;-67
2022/10/15 02:07:28;;;;;;;0.00;0.00;;;;;;;;;;5065330;28;20222;-68
2022/10/15 02:09:58;;;;;;;0.00;0.00;;;;;;;;;;5068108;28;20214;-67
2022/10/15 02:12:31;;;;;;;0.00;0.00;;;;;;;;;;5068739;28;20201;-67
2022/10/15 02:15:03;;;;;;;0.00;0.00;;;;;;;;;;5065874;28;20190;-66
2022/10/15 02:17:34;;;;;;;0.00;0.00;;;;;;;;;;5066352;28;20223;-67
2022/10/15 02:20:07;;;;;;;0.00;0.00;;;;;;;;;;5067502;28;20198;-68
2022/10/15 02:22:37;;;;;;;0.00;0.00;;;;;;;;;;5065591;28;20238;-68
2022/10/15 02:25:08;;;;;;;0.00;0.00;;;;;;;;;;5069677;28;20244;-67
2022/10/15 02:27:37;;;;;;;0.00;0.00;;;;;;;;;;5063805;28;20355;-67
2022/10/15 02:30:07;;;;;;;0.00;0.00;;;;;;;;;;5070419;28;20195;-67
2022/10/15 02:32:36;;;;;;;0.00;0.00;;;;;;;;;;5068518;28;20210;-68
2022/10/15 02:35:06;;;;;;;0.00;0.00;;;;;;;;;;5066127;28;20204;-66
2022/10/15 02:37:36;;;;;;;0.00;0.00;;;;;;;;;;5065519;28;20279;-67
2022/10/15 02:40:03;;;;;;;0.00;0.00;;;;;;;;;;5069054;28;20197;-67
2022/10/15 02:42:31;;;;;;;0.00;0.00;;;;;;;;;;5065879;28;20193;-68
2022/10/15 02:44:58;;;;;;;0.00;0.00;;;;;;;;;;5063925;28;20225;-68
2022/10/15 02:47:26;;;;;;;0.00;0.00;;;;;;;;;;5063972;28;20345;-68
2022/10/15 02:49:54;;;;;;;0.00;0.00;;;;;;;;;;5067912;28;20200;-68
2022/10/15 02:52:23;;;;;;;0.00;0.00;;;;;;;;;;5064037;28;20194;-66
2022/10/15 02:54:50;;;;;;;0.00;0.00;;;;;;;;;;5067047;28;20198;-67
2022/10/15 02:57:18;;;;;;;0.00;0.00;;;;;;;;;;5099737;27;20215;-68
2022/10/15 02:59:46;;;;;;;0.00;0.00;;;;;;;;;;5065225;28;20209;-70
2022/10/15 03:02:14;;;;;;;0.00;0.00;;;;;;;;;;5066824;28;20205;-70
2022/10/15 03:04:41;;;;;;;0.00;0.00;;;;;;;;;;5065550;28;20218;-70
2022/10/15 03:07:09;;;;;;;0.00;0.00;;;;;;;;;;5084275;28;20205;-70
2022/10/15 03:09:37;;;;;;;0.00;0.00;;;;;;;;;;5064226;28;20217;-70
2022/10/15 03:12:06;;;;;;;0.00;0.00;;;;;;;;;;5065714;28;20197;-70
2022/10/15 03:14:34;;;;;;;0.00;0.00;;;;;;;;;;5065961;28;20213;-70
2022/10/15 03:17:02;;;;;;;0.00;0.00;;;;;;;;;;5069709;28;20220;-70
2022/10/15 03:19:31;;;;;;;0.00;0.00;;;;;;;;;;5062273;28;20313;-71
2022/10/15 03:21:58;;;;;;;0.00;0.00;;;;;;;;;;5068185;28;20293;-70
2022/10/15 03:24:30;;;;;;;0.00;0.00;;;;;;;;;;5069557;28;20209;-70
2022/10/15 03:27:00;;;;;;;0.00;0.00;;;;;;;;;;5066982;28;20198;-70
2022/10/15 03:29:27;;;;;;;0.00;0.00;;;;;;;;;;5071356;28;20213;-70
2022/10/15 03:32:00;;;;;;;0.00;0.00;;;;;;;;;;5062996;28;20194;-70
2022/10/15 03:34:28;;;;;;;0.00;0.00;;;;;;;;;;5068591;28;20206;-71
2022/10/15 03:36:55;;;;;;;0.00;0.00;;;;;;;;;;5064733;28;20201;-70
2022/10/15 03:39:23;;;;;;;0.00;0.00;;;;;;;;;;5064296;28;20289;-70
2022/10/15 03:41:55;;;;;;;0.00;0.00;;;;;;;;;;5066203;28;20214;-70
2022/10/15 03:44:33;;;;;;;0.00;0.00;;;;;;;;;;5064870;28;20208;-71
2022/10/15 03:47:09;;;;;;;0.00;0.00;;;;;;;;;;5066563;28;20201;-70
2022/10/15 03:49:44;;;;;;;0.00;0.00;;;;;;;;;;5066857;28;20200;-71
2022/10/15 03:52:11;;;;;;;0.00;0.00;;;;;;;;;;5069794;28;20198;-71
2022/10/15 03:54:39;;;;;;;0.00;0.00;;;;;;;;;;5065249;28;20198;-70
2022/10/15 03:57:07;;;;;;;0.00;0.00;;;;;;;;;;5098255;27;20199;-70
2022/10/15 03:59:41;;;;;;;0.00;0.00;;;;;;;;;;5067241;28;20271;-70
2022/10/15 04:02:11;;;;;;;0.00;0.00;;;;;;;;;;5051535;28;20219;-70
2022/10/15 04:04:38;;;;;;;0.00;0.00;;;;;;;;;;5065444;28;20194;-70
2022/10/15 04:07:06;;;;;;;0.00;0.00;;;;;;;;;;5102805;27;20195;-70
2022/10/15 04:09:34;;;;;;;0.00;0.00;;;;;;;;;;5068801;28;20203;-70
2022/10/15 04:12:21;;;;;;;0.00;0.00;;;;;;;;;;5069976;28;20202;-70
2022/10/15 04:14:51;;;;;;;0.00;0.00;;;;;;;;;;5069631;28;20202;-70
2022/10/15 04:17:18;;;;;;;0.00;0.00;;;;;;;;;;5071291;28;20210;-70
2022/10/15 04:19:46;;;;;;;0.00;0.00;;;;;;;;;;5068656;28;20202;-72
2022/10/15 04:22:15;;;;;;;0.00;0.00;;;;;;;;;;5068106;28;20201;-71
2022/10/15 04:24:56;;;;;;;0.00;0.00;;;;;;;;;;5067696;28;20305;-70
2022/10/15 04:27:27;;;;;;;0.00;0.00;;;;;;;;;;5067155;28;20226;-71
2022/10/15 04:30:05;;;;;;;0.00;0.00;;;;;;;;;;5087798;28;20195;-71
2022/10/15 04:32:33;;;;;;;0.00;0.00;;;;;;;;;;5067002;28;20210;-71
2022/10/15 04:35:00;;;;;;;0.00;0.00;;;;;;;;;;5066475;28;20259;-71
2022/10/15 04:37:47;;;;;;;0.00;0.00;;;;;;;;;;5069113;28;20210;-71
2022/10/15 04:40:15;;;;;;;0.00;0.00;;;;;;;;;;5103855;27;20652;-71
2022/10/15 04:42:43;;;;;;;0.00;0.00;;;;;;;;;;5069590;28;20209;-71
2022/10/15 04:45:12;;;;;;;0.00;0.00;;;;;;;;;;5067379;28;20198;-70
2022/10/15 04:47:39;;;;;;;0.00;0.00;;;;;;;;;;5070155;28;20253;-71
2022/10/15 04:50:09;;;;;;;0.00;0.00;;;;;;;;;;5069360;28;20213;-70
2022/10/15 04:52:56;;;;;;;0.00;0.00;;;;;;;;;;5073097;28;20201;-71
2022/10/15 04:55:25;;;;;;;0.00;0.00;;;;;;;;;;5068852;28;20210;-71
2022/10/15 04:57:57;;;;;;;0.00;0.00;;;;;;;;;;5065736;28;20210;-70
2022/10/15 05:00:30;;;;;;;0.00;0.00;;;;;;;;;;5069581;28;20210;-71
2022/10/15 05:03:23;;;;;;;0.00;0.00;;;;;;;;;;5066480;28;20213;-71
2022/10/15 05:06:01;;;;;;;0.00;0.00;;;;;;;;;;5072633;28;20218;-71
2022/10/15 05:08:29;;;;;;;0.00;0.00;;;;;;;;;;5068637;28;20224;-70
2022/10/15 05:11:18;;;;;;;0.00;0.00;;;;;;;;;;5067792;28;20201;-70
2022/10/15 05:13:46;;;;;;;0.00;0.00;;;;;;;;;;5066684;28;20203;-71
2022/10/15 05:16:15;;;;;;;0.00;0.00;;;;;;;;;;5063476;28;20191;-71
2022/10/15 05:18:44;;;;;;;0.00;0.00;;;;;;;;;;5069914;28;20291;-71
2022/10/15 05:21:12;;;;;;;0.00;0.00;;;;;;;;;;5067722;28;20200;-72
2022/10/15 05:23:42;;;;;;;0.00;0.00;;;;;;;;;;5072478;28;20251;-71
2022/10/15 05:26:20;;;;;;;0.00;0.00;;;;;;;;;;5065293;28;20218;-70
2022/10/15 05:28:47;;;;;;;0.00;0.00;;;;;;;;;;5066894;28;20351;-71
2022/10/15 05:31:26;;;;;;;0.00;0.00;;;;;;;;;;5063424;28;20190;-71
2022/10/15 05:34:07;;;;;;;0.00;0.00;;;;;;;;;;5067451;28;20198;-72
2022/10/15 05:36:40;;;;;;;0.00;0.00;;;;;;;;;;5069770;28;20202;-71
2022/10/15 05:39:09;;;;;;;0.00;0.00;;;;;;;;;;5068627;28;20219;-70
2022/10/15 05:41:41;;;;;;;0.00;0.00;;;;;;;;;;5101991;27;20296;-70
2022/10/15 05:44:09;;;;;;;0.00;0.00;;;;;;;;;;5074000;28;20259;-70
2022/10/15 05:46:39;;;;;;;0.00;0.00;;;;;;;;;;5066425;28;20225;-70
2022/10/15 05:49:06;;;;;;;0.00;0.00;;;;;;;;;;5068915;28;20324;-70
2022/10/15 05:51:46;;;;;;;0.00;0.00;;;;;;;;;;5065403;28;20210;-70
2022/10/15 05:54:21;;;;;;;0.00;0.00;;;;;;;;;;5067375;28;20288;-70
2022/10/15 05:56:49;;;;;;;0.00;0.00;;;;;;;;;;5070658;28;20191;-70
2022/10/15 05:59:16;;;;;;;0.00;0.00;;;;;;;;;;5051480;28;20216;-70
2022/10/15 06:01:45;;;;;;;0.00;0.00;;;;;;;;;;5065562;28;20209;-71
2022/10/15 06:04:12;;;;;;;0.00;0.00;;;;;;;;;;5067710;28;20273;-70
2022/10/15 06:06:42;;;;;;;0.00;0.00;;;;;;;;;;5064398;28;20299;-70
2022/10/15 06:09:09;;;;;;;0.00;0.00;;;;;;;;;;5068693;28;20293;-70
2022/10/15 06:11:37;;;;;;;0.00;0.00;;;;;;;;;;5063747;28;20303;-70
2022/10/15 06:14:04;;;;;;;0.00;0.00;;;;;;;;;;5067912;28;20208;-70
2022/10/15 06:16:32;;;;;;;0.00;0.00;;;;;;;;;;5063107;28;20201;-71
2022/10/15 06:19:01;;;;;;;0.00;0.00;;;;;;;;;;5067649;28;20215;-70
2022/10/15 06:21:29;;;;;;;0.00;0.00;;;;;;;;;;5068676;28;20209;-71
2022/10/15 06:23:56;;;;;;;0.00;0.00;;;;;;;;;;5066959;28;20194;-70
2022/10/15 06:26:24;;;;;;;0.00;0.00;;;;;;;;;;5067365;28;20218;-71
2022/10/15 06:28:51;;;;;;;0.00;0.00;;;;;;;;;;5063408;28;20229;-70
2022/10/15 06:31:18;;;;;;;0.00;0.00;;;;;;;;;;5067880;28;20195;-70
2022/10/15 06:33:46;;;;;;;0.00;0.00;;;;;;;;;;5067673;28;20221;-70
2022/10/15 06:36:15;;;;;;;0.00;0.00;;;;;;;;;;5069054;28;20194;-70
2022/10/15 06:38:44;;;;;;;0.00;0.00;;;;;;;;;;5065276;28;20230;-70
2022/10/15 06:41:11;;;;;;;0.00;0.00;;;;;;;;;;5052275;28;20258;-70
2022/10/15 06:43:39;;;;;;;0.00;0.00;;;;;;;;;;5066497;28;20205;-69
2022/10/15 06:46:07;;;;;;;0.00;0.00;;;;;;;;;;5063731;28;20222;-71
2022/10/15 06:48:34;;;;;;;0.00;0.00;;;;;;;;;;5065296;28;20222;-70
2022/10/15 06:51:02;;;;;;;0.00;0.00;;;;;;;;;;5066453;28;20221;-70
2022/10/15 06:53:31;;;;;;;0.00;0.00;;;;;;;;;;5064601;28;20226;-71
2022/10/15 06:55:58;;;;;;;0.00;0.00;;;;;;;;;;5066392;28;20266;-71
2022/10/15 06:58:26;;;;;;;0.00;0.00;;;;;;;;;;5066535;28;20230;-70
2022/10/15 07:00:53;;;;;;;0.00;0.00;;;;;;;;;;5065970;28;20190;-70
2022/10/15 07:03:20;;;;;;;0.00;0.00;;;;;;;;;;5067575;28;20210;-70
2022/10/15 07:05:48;;;;;;;0.00;0.00;;;;;;;;;;5067610;28;20260;-70
2022/10/15 07:08:15;;;;;;;0.00;0.00;;;;;;;;;;5066861;28;20308;-70
2022/10/15 07:10:44;;;;;;;0.00;0.00;;;;;;;;;;5067556;28;20216;-69
2022/10/15 07:13:11;;;;;;;0.00;0.00;;;;;;;;;;5068278;28;20197;-70
2022/10/15 07:15:39;;;;;;;0.00;0.00;;;;;;;;;;5066884;28;20206;-70
2022/10/15 07:18:06;;;;;;;0.00;0.00;;;;;;;;;;5067192;28;20222;-70
2022/10/15 07:20:33;;;;;;;0.00;0.00;;;;;;;;;;5064004;28;20221;-69
2022/10/15 07:23:02;;;;;;;0.00;0.00;;;;;;;;;;5070375;28;20209;-69
2022/10/15 07:25:34;;;;;;;0.00;0.00;;;;;;;;;;5065006;28;20202;-69
2022/10/15 07:28:03;;;;;;;0.00;0.00;;;;;;;;;;5063902;28;20619;-69
2022/10/15 07:30:30;;;;;;;0.00;0.00;;;;;;;;;;5066133;28;20199;-69
2022/10/15 07:32:58;;;;;;;0.00;0.00;;;;;;;;;;5062980;28;20191;-71
2022/10/15 07:35:26;;;;;;;0.00;0.00;;;;;;;;;;5065796;28;20202;-70
2022/10/15 07:37:54;;;;;;;0.00;0.00;;;;;;;;;;5062005;28;20702;-70
2022/10/15 07:40:21;;;;;;;0.00;0.00;;;;;;;;;;5065226;28;20297;-70
2022/10/15 07:42:53;;;;;;;0.00;0.00;;;;;;;;;;5084376;28;20199;-70
2022/10/15 07:45:23;;;;;;;0.00;0.00;;;;;;;;;;5075171;28;20625;-69
2022/10/15 07:47:51;;;;;;;0.00;0.00;;;;;;;;;;5067275;28;20311;-70
2022/10/15 07:50:18;;;;;;;0.00;0.00;;;;;;;;;;5071703;28;20206;-70
2022/10/15 07:52:46;;;;;;;0.00;0.00;;;;;;;;;;5073216;28;20198;-69
2022/10/15 07:55:14;;;;;;;0.00;0.00;;;;;;;;;;5064641;28;20190;-69
2022/10/15 07:57:41;;;;;;;0.00;0.00;;;;;;;;;;5067664;28;20297;-71
2022/10/15 08:00:09;;;;;;;0.00;0.00;;;;;;;;;;5069044;28;20253;-69
2022/10/15 08:02:41;;;;;;;0.00;0.00;;;;;;;;;;5068535;28;20205;-70
2022/10/15 08:05:09;;;;;;;0.00;0.00;;;;;;;;;;5106384;27;20233;-70
2022/10/15 08:07:36;;;;;;;0.00;0.00;;;;;;;;;;5071122;28;20233;-70
2022/10/15 08:10:12;;;;;;;0.00;0.00;;;;;;;;;;5073732;28;20209;-69
2022/10/15 08:12:39;;;;;;;0.00;0.00;;;;;;;;;;5066724;28;20214;-70
2022/10/15 08:15:07;;;;;;;0.00;0.00;;;;;;;;;;5071698;28;20198;-70
2022/10/15 08:17:35;;;;;;;0.00;0.00;;;;;;;;;;5070716;28;20220;-69
2022/10/15 08:20:04;;;;;;;0.00;0.00;;;;;;;;;;5068411;28;20201;-70
2022/10/15 08:22:31;;;;;;;0.00;0.00;;;;;;;;;;5067142;28;20206;-69
2022/10/15 08:24:59;;;;;;;0.00;0.00;;;;;;;;;;5102200;27;20198;-69
2022/10/15 08:27:27;;;;;;;0.00;0.00;;;;;;;;;;5069527;28;20231;-70
2022/10/15 08:29:57;;;;;;;0.00;0.00;;;;;;;;;;5065897;28;20248;-69
2022/10/15 08:32:25;;;;;;;0.00;0.00;;;;;;;;;;5070651;28;20293;-70
2022/10/15 08:34:52;;;;;;;0.00;0.00;;;;;;;;;;5066083;28;20208;-69
2022/10/15 08:37:21;;;;;;;0.00;0.00;;;;;;;;;;5071390;28;20245;-70
2022/10/15 08:39:48;;;;;;;0.00;0.00;;;;;;;;;;5070354;28;20228;-70
2022/10/15 08:42:18;;;;;;;0.00;0.00;;;;;;;;;;5068137;28;20202;-70
2022/10/15 08:44:47;;;;;;;0.00;0.00;;;;;;;;;;5083984;28;20201;-70
2022/10/15 08:47:18;;;;;;;0.00;0.00;;;;;;;;;;5069189;28;20304;-70
2022/10/15 08:49:48;;;;;;;0.00;0.00;;;;;;;;;;5073845;28;20240;-69
2022/10/15 08:52:21;;;;;;;0.00;0.00;;;;;;;;;;5067923;28;20190;-70
2022/10/15 08:54:49;;;;;;;0.00;0.00;;;;;;;;;;5071364;28;20237;-70
2022/10/15 08:57:21;;;;;;;0.00;0.00;;;;;;;;;;5099717;27;20289;-70
2022/10/15 08:59:53;;;;;;;0.00;0.00;;;;;;;;;;5098271;27;20195;-70
2022/10/15 09:02:23;;;;;;;0.00;0.00;;;;;;;;;;5071399;28;20198;-69
2022/10/15 09:04:54;;;;;;;0.00;0.00;;;;;;;;;;5101667;27;20202;-71
2022/10/15 09:07:26;;;;;;;0.00;0.00;;;;;;;;;;5098485;27;20227;-70
2022/10/15 09:09:58;;;;;;;0.00;0.00;;;;;;;;;;5069629;28;20202;-70
2022/10/15 09:12:33;;;;;;;0.00;0.00;;;;;;;;;;5101763;27;20222;-71
2022/10/15 09:15:02;;;;;;;0.00;0.00;;;;;;;;;;5054209;28;20202;-69
2022/10/15 09:17:32;;;;;;;0.00;0.00;;;;;;;;;;5097993;27;20238;-69
2022/10/15 09:20:02;;;;;;;0.00;0.00;;;;;;;;;;5072363;28;20202;-69
2022/10/15 09:22:32;;;;;;;0.00;0.00;;;;;;;;;;5068935;28;20929;-70
2022/10/15 09:25:01;;;;;;;0.00;0.00;;;;;;;;;;5065431;28;20569;-69
2022/10/15 09:27:31;;;;;;;0.00;0.00;;;;;;;;;;5065505;28;20219;-71
2022/10/15 09:30:03;;;;;;;0.00;0.00;;;;;;;;;;5064202;28;20209;-69
2022/10/15 09:32:34;;;;;;;0.00;0.00;;;;;;;;;;5067397;28;20233;-69
2022/10/15 09:35:08;;;;;;;0.00;0.00;;;;;;;;;;5062750;28;20203;-70
2022/10/15 09:37:41;;;;;;;0.00;0.00;;;;;;;;;;5080518;28;20225;-70
2022/10/15 09:40:35;;;;;;;0.00;0.00;;;;;;;;;;5070896;28;20202;-70
2022/10/15 09:43:03;;;;;;;0.00;0.00;;;;;;;;;;5083841;28;20194;-70
2022/10/15 09:45:31;;;;;;;0.00;0.00;;;;;;;;;;5066903;28;20206;-69
2022/10/15 09:47:59;;;;;;;0.00;0.00;;;;;;;;;;5067660;28;20218;-70
2022/10/15 09:50:29;;;;;;;0.00;0.00;;;;;;;;;;5068521;28;20195;-70
2022/10/15 09:53:04;;;;;;;0.00;0.00;;;;;;;;;;5071918;28;20199;-70
2022/10/15 09:55:36;;;;;;;0.00;0.00;;;;;;;;;;5069138;28;20217;-70
2022/10/15 09:58:07;;;;;;;0.00;0.00;;;;;;;;;;5098188;27;20210;-72
2022/10/15 10:00:55;;;;;;;0.00;0.00;;;;;;;;;;5065818;28;20206;-70
2022/10/15 10:03:24;;;;;;;0.00;0.00;;;;;;;;;;5071578;28;20332;-71
2022/10/15 10:05:52;;;;;;;0.00;0.00;;;;;;;;;;5084702;28;20206;-70
2022/10/15 10:08:21;;;;;;;0.00;0.00;;;;;;;;;;5068949;28;20222;-70
2022/10/15 10:10:56;;;;;;;0.00;0.00;;;;;;;;;;5063652;28;20237;-70
2022/10/15 10:13:25;;;;;;;0.00;0.00;;;;;;;;;;5067636;28;20237;-71
2022/10/15 10:15:53;;;;;;;0.00;0.00;;;;;;;;;;5059032;28;20290;-70
2022/10/15 10:18:20;;;;;;;0.00;0.00;;;;;;;;;;5065380;28;20218;-71
2022/10/15 10:20:58;;;;;;;0.00;0.00;;;;;;;;;;5098289;27;20260;-70
2022/10/15 10:23:30;;;;;;;0.00;0.00;;;;;;;;;;5097690;27;20212;-72
2022/10/15 10:25:59;;;;;;;0.00;0.00;;;;;;;;;;5062622;28;20260;-71
2022/10/15 10:28:30;;;;;;;0.00;0.00;;;;;;;;;;5063395;28;20226;-70
2022/10/15 10:31:03;;;;;;;0.00;0.00;;;;;;;;;;5068128;28;20328;-71
2022/10/15 10:33:32;;;;;;;0.00;0.00;;;;;;;;;;5068821;28;20203;-72
2022/10/15 10:36:00;;;;;;;0.00;0.00;;;;;;;;;;5063872;28;20226;-72
2022/10/15 10:38:29;;;;;;;0.00;0.00;;;;;;;;;;5066539;28;20225;-73
2022/10/15 10:40:57;;;;;;;0.00;0.00;;;;;;;;;;5067752;28;20253;-72
2022/10/15 10:43:27;;;;;;;0.00;0.00;;;;;;;;;;5063835;28;20213;-71
2022/10/15 10:45:57;;;;;;;0.00;0.00;;;;;;;;;;5099711;27;20218;-70
2022/10/15 10:48:26;;;;;;;0.00;0.00;;;;;;;;;;5065732;28;20226;-69
2022/10/15 10:51:04;;;;;;;0.00;0.00;;;;;;;;;;5067577;28;20209;-70
2022/10/15 10:53:32;;;;;;;0.00;0.00;;;;;;;;;;5066428;28;20206;-70
2022/10/15 10:56:02;;;;;;;0.00;0.00;;;;;;;;;;5070081;28;20290;-69
2022/10/15 10:58:33;;;;;;;0.00;0.00;;;;;;;;;;5066790;28;20221;-70
2022/10/15 11:01:01;;;;;;;0.00;0.00;;;;;;;;;;5064062;28;20256;-70
2022/10/15 11:03:31;;;;;;;0.00;0.00;;;;;;;;;;5064728;28;20202;-71
2022/10/15 11:06:03;;;;;;;0.00;0.00;;;;;;;;;;5063541;28;20197;-70
2022/10/15 11:08:34;;;;;;;0.00;0.00;;;;;;;;;;5092727;27;20613;-70
2022/10/15 11:11:05;;;;;;;0.00;0.00;;;;;;;;;;5066093;28;20210;-69
2022/10/15 11:13:47;;;;;;;0.00;0.00;;;;;;;;;;5063471;28;20194;-70
2022/10/15 11:16:19;;;;;;;0.00;0.00;;;;;;;;;;5061578;28;20213;-70
2022/10/15 11:18:55;;;;;;;0.00;0.00;;;;;;;;;;5069344;28;20214;-69
2022/10/15 11:21:27;;;;;;;0.00;0.00;;;;;;;;;;5065561;28;20198;-69
2022/10/15 11:24:04;;;;;;;0.00;0.00;;;;;;;;;;5063525;28;20313;-69
2022/10/15 11:26:41;;;;;;;0.00;0.00;;;;;;;;;;5096570;27;20289;-69
2022/10/15 11:29:13;;;;;;;0.00;0.00;;;;;;;;;;5064644;28;20453;-69
2022/10/15 11:31:44;;;;;;;0.00;0.00;;;;;;;;;;5068249;28;20206;-69
2022/10/15 11:34:21;;;;;;;0.00;0.00;;;;;;;;;;5065763;28;20264;-70
2022/10/15 11:36:57;;;;;;;0.00;0.00;;;;;;;;;;5079918;28;20271;-69
2022/10/15 11:39:32;;;;;;;0.00;0.00;;;;;;;;;;5068265;28;20197;-69
2022/10/15 11:42:03;;;;;;;0.00;0.00;;;;;;;;;;5068470;28;20288;-70
2022/10/15 11:44:39;;;;;;;0.00;0.00;;;;;;;;;;5070536;28;20200;-70
2022/10/15 11:47:15;;;;;;;0.00;0.00;;;;;;;;;;5067606;28;20205;-67
2022/10/15 11:49:47;;;;;;;0.00;0.00;;;;;;;;;;5060970;28;20206;-66
2022/10/15 11:52:32;;;;;;;0.00;0.00;;;;;;;;;;5068822;28;20321;-67
2022/10/15 11:55:03;;;;;;;0.00;0.00;;;;;;;;;;5062857;28;20202;-66
2022/10/15 11:57:31;;;;;;;0.00;0.00;;;;;;;;;;5060058;28;20214;-67
2022/10/15 12:00:02;;;;;;;0.00;0.00;;;;;;;;;;5060919;28;20202;-66
2022/10/15 12:02:39;;;;;;;0.00;0.00;;;;;;;;;;5062012;28;20202;-67
2022/10/15 12:05:08;;;;;;;0.00;0.00;;;;;;;;;;5062410;28;20267;-67
2022/10/15 12:07:39;;;;;;;0.00;0.00;;;;;;;;;;5059431;28;20233;-67
2022/10/15 12:10:19;;;;;;;0.00;0.00;;;;;;;;;;5065754;28;20206;-67
2022/10/15 12:12:50;;;;;;;0.00;0.00;;;;;;;;;;5097129;27;20586;-66
2022/10/15 12:15:25;;;;;;;0.00;0.00;;;;;;;;;;5078461;28;20198;-66
2022/10/15 12:17:55;;;;;;;0.00;0.00;;;;;;;;;;5060766;28;20217;-66
2022/10/15 12:20:24;;;;;;;0.00;0.00;;;20.40;99.90;;;;;;5056453;28;20209;-67
2022/10/15 12:23:00;;;;;;;0.00;0.00;;;20.40;99.90;;;;;;5067414;28;20252;-69
2022/10/15 12:25:41;;;;;;;0.00;0.00;;;;;;;;;;5064459;28;20194;-68
2022/10/15 12:28:13;;;;;;;0.00;0.00;;;;;;;;;;5064170;28;20234;-66
2022/10/15 12:30:43;;;;;;;0.00;0.00;;;;;;;;;;5069566;28;20190;-67
2022/10/15 12:33:23;;;;;;;0.00;0.00;;;;;;;;;;5083859;28;20195;-66
2022/10/15 12:35:54;;;;;;;0.00;0.00;;;;;;;;;;5065640;28;20349;-66
2022/10/15 12:38:30;;;;;;;0.00;0.00;;;;;;;;;;5084940;28;20214;-65
2022/10/15 12:40:59;;;;;;;0.00;0.00;;;;;;;;;;5064256;28;20194;-67
2022/10/15 12:43:28;;;;;;;0.00;0.00;;;;;;;;;;5062284;28;20198;-67
2022/10/15 12:45:58;;;;;;;0.00;0.00;;;;;;;;;;5065619;28;20231;-65
2022/10/15 12:48:32;;;;;;;0.00;0.00;;;;;;;;;;5070630;28;20229;-69
2022/10/15 12:51:40;;;;;;;0.00;0.00;;;20.90;99.90;;;;;;5067846;28;20202;-67
2022/10/15 12:54:33;;;;;;;0.00;0.00;;;20.90;99.90;;;;;;5068211;28;20201;-66
2022/10/15 12:57:03;;;;;;;0.00;0.00;;;20.70;99.90;;;;;;5083237;28;20232;-69
2022/10/15 12:59:46;;;;;;;0.00;0.00;;;20.60;99.90;;;;;;5067928;28;20194;-69
2022/10/15 13:02:34;;;;;;;0.00;0.00;;;20.60;99.90;;;;;;5063310;28;20199;-70
2022/10/15 13:05:01;;;;;;;0.00;0.00;;;20.50;99.90;;;;;;5054123;28;20209;-72
2022/10/15 13:07:28;;;;;;;0.00;0.00;;;20.40;99.90;;;;;;5068630;28;20308;-70
2022/10/15 13:09:56;;;;;;;0.00;0.00;;;20.30;99.90;;;;;;5067515;28;20226;-70
2022/10/15 13:12:28;;;;;;;0.00;0.00;;;20.40;99.90;;;;;;5064433;28;20202;-68
2022/10/15 13:15:02;;;;;;;0.00;0.00;;;20.50;99.90;;;;;;5064522;28;20289;-68
2022/10/15 13:17:32;;;;;;;0.00;0.00;;;20.60;99.90;;;;;;5065366;28;20300;-70
2022/10/15 13:20:03;;;;;;;0.00;0.00;;;20.70;99.90;;;;;;5068869;28;20747;-69
2022/10/15 13:22:32;;;;;;;0.00;0.00;;;20.70;99.90;;;;;;5070364;28;20268;-71
2022/10/15 13:25:00;;;;;;;0.00;0.00;;;20.80;99.90;;;;;;5068068;28;20225;-69
2022/10/15 13:27:30;;;;;;;0.00;0.00;;;20.70;99.90;;;;;;5067443;28;20271;-68
2022/10/15 13:30:01;;;;;;;0.00;0.00;;;20.70;99.90;;;;;;5066634;28;20242;-67
2022/10/15 13:32:32;;;;;;;0.00;0.00;;;20.50;99.90;;;;;;5065224;28;20256;-66
2022/10/15 13:35:02;;;;;;;0.00;0.00;;;20.50;99.90;;;;;;5065466;28;20194;-67
2022/10/15 13:37:31;;;;;;;0.00;0.00;;;;;;;;;;5067393;28;20229;-67
2022/10/15 13:39:59;;;;;;;0.00;0.00;;;;;;;;;;5073739;28;20221;-68
2022/10/15 13:42:27;;;;;;;0.00;0.00;;;;;;;;;;5068322;28;20202;-67
2022/10/15 13:45:00;;;;;;;0.00;0.00;;;;;;;;;;5067587;28;20230;-67
2022/10/15 13:47:29;;;;;;;0.00;0.00;;;;;;;;;;5098800;27;20226;-68
2022/10/15 13:50:15;;;;;;;0.00;0.00;;;;;;;;;;5064315;28;20198;-68
2022/10/15 13:52:43;;;;;;;0.00;0.00;;;;;;;;;;5069939;28;20194;-67
2022/10/15 13:55:17;;;;;;;0.00;0.00;;;;;;;;;;5068502;28;20236;-69
2022/10/15 13:57:45;;;;;;;0.00;0.00;;;;;;;;;;5064109;28;20222;-68
2022/10/15 14:00:21;;;;;;;0.00;0.00;;;20.60;99.90;;;;;;5081825;28;20313;-68
2022/10/15 14:03:13;;;;;;;0.00;0.00;;;20.60;99.90;;;;;;5082039;28;20288;-68
2022/10/15 14:05:42;;;;;;;0.00;0.00;;;20.50;99.90;;;;;;5066849;28;20226;-68
2022/10/15 14:08:19;;;;;;;0.00;0.00;;;20.50;99.90;;;;;;5065988;28;20222;-67
2022/10/15 14:10:47;;;;;;;0.00;0.00;;;20.40;99.90;;;;;;5065948;28;20198;-66
2022/10/15 14:13:15;;;;;;;0.00;0.00;;;20.40;99.90;;;;;;5061292;28;20298;-68
2022/10/15 14:15:46;;;;;;;0.00;0.00;;;20.30;99.90;;;;;;5079550;28;20225;-68
2022/10/15 14:18:16;;;;;;;0.00;0.00;;;20.30;99.90;;;;;;5065163;28;20309;-67
2022/10/15 14:20:47;;;;;;;0.00;0.00;;;20.20;99.90;;;;;;5069213;28;20206;-67
2022/10/15 14:23:22;;;;;;;0.00;0.00;;;20.20;99.90;;;;;;5099851;27;20274;-67
2022/10/15 14:25:54;;;;;;;0.00;0.00;;;20.10;99.90;;;;;;5056705;28;20288;-68
2022/10/15 14:28:23;;;;;;;0.00;0.00;;;20.20;99.90;;;;;;5070371;28;20219;-68
2022/10/15 14:30:51;;;;;;;0.00;0.00;;;20.10;99.90;;;;;;5066418;28;20279;-67
2022/10/15 14:33:34;;;;;;;0.00;0.00;;;20.10;99.90;;;;;;5069618;28;20261;-66
2022/10/15 14:36:09;;;;;;;0.00;0.00;;;20.10;99.90;;;;;;5067809;28;20182;-67
2022/10/15 14:38:37;;;;;;;0.00;0.00;;;20.10;99.90;;;;;;5067787;28;20217;-66
2022/10/15 14:41:15;;;;;;;0.00;0.00;;;20.10;99.90;;;;;;5068367;28;20206;-68
2022/10/15 14:43:42;;;;;;;0.00;0.00;;;20.00;99.90;;;;;;5067608;28;20279;-67
2022/10/15 14:46:17;;;;;;;0.00;0.00;;;20.00;99.90;;;;;;5065748;28;20214;-67
2022/10/15 14:48:45;;;;;;;0.00;0.00;;;20.00;99.90;;;;;;5068504;28;20216;-65
2022/10/15 14:51:22;;;;;;;0.00;0.00;;;19.90;99.90;;;;;;5068461;28;20225;-68